EVVA

Details ICAO EVVA (VTS)
Name VENTSPILS INTL
Region Latvia
Timezone Europe/Riga (UTC+2.0)
Plans Departing 4
Arriving 13
Stats Elevation 19 ft / 6 m (AMSL)
Location 57.357800° 21.544165°
Runways 1
Magnetic Variation 6.959° E
Sunrise 2017-12-14 07:09:08 UTC / 2017-12-14 09:09:08 Local
Sunset 2017-12-14 13:50:37 UTC / 2017-12-14 15:50:37 Local
Advertisement - Login to hide

Runways

ID Width Length Bearing (true) Bearing (mag) Surface Threshold Offset Overrun Length
03 105 ft / 32 m 4,251 ft / 1,296 m 35.42° 28.46° Asphalt 0 ft / 0 m 0 ft / 0 m
21 105 ft / 32 m 4,251 ft / 1,296 m 215.43° 208.47° Asphalt 0 ft / 0 m 0 ft / 0 m

Map

Weather


0- 5 10 15 20 25 30 35+ Temperature / ° C

Clouds and Precipitation
Forecast for 2017-12-14 00:00 UTC. Updated an hour ago

Ground ~20,000 ft ~40,000 ft Winds

METAR

EVVA 140020Z AUTO 16013KT 9999 SCT015 01/M01 Q0999

TAF

Not found

Frequencies

Tower 123.90 MHz AFIS
Warning: Do not use this data for real-world aviation or navigation. No guarantee of current accuracy is given.